sensor_id;sensor_type;location;lat;lon;timestamp;P1;durP1;ratioP1;P2;durP2;ratioP2
48317;SDS011;34127;47.412;9.730;2023-07-20T00:01:08;8.65;;;4.25;;
48317;SDS011;34127;47.412;9.730;2023-07-20T00:03:34;6.93;;;4.15;;
48317;SDS011;34127;47.412;9.730;2023-07-20T00:06:00;7.63;;;3.90;;
48317;SDS011;34127;47.412;9.730;2023-07-20T00:08:26;6.95;;;4.20;;
48317;SDS011;34127;47.412;9.730;2023-07-20T00:10:52;9.05;;;3.95;;
48317;SDS011;34127;47.412;9.730;2023-07-20T00:13:19;6.82;;;3.85;;
48317;SDS011;34127;47.412;9.730;2023-07-20T00:15:46;7.30;;;4.13;;
48317;SDS011;34127;47.412;9.730;2023-07-20T00:18:12;9.40;;;5.15;;
48317;SDS011;34127;47.412;9.730;2023-07-20T00:20:38;6.60;;;3.90;;
48317;SDS011;34127;47.412;9.730;2023-07-20T00:23:05;7.32;;;3.97;;
48317;SDS011;34127;47.412;9.730;2023-07-20T00:25:31;7.65;;;4.07;;
48317;SDS011;34127;47.412;9.730;2023-07-20T00:27:58;8.25;;;3.78;;
48317;SDS011;34127;47.412;9.730;2023-07-20T00:30:24;7.25;;;4.00;;
48317;SDS011;34127;47.412;9.730;2023-07-20T00:32:51;6.80;;;4.30;;
48317;SDS011;34127;47.412;9.730;2023-07-20T00:35:17;9.73;;;4.07;;
48317;SDS011;34127;47.412;9.730;2023-07-20T00:37:43;8.50;;;4.40;;
48317;SDS011;34127;47.412;9.730;2023-07-20T00:40:09;6.38;;;4.28;;
48317;SDS011;34127;47.412;9.730;2023-07-20T00:42:35;6.38;;;3.83;;
48317;SDS011;34127;47.412;9.730;2023-07-20T00:45:02;7.93;;;4.55;;
48317;SDS011;34127;47.412;9.730;2023-07-20T00:47:28;6.97;;;4.32;;
48317;SDS011;34127;47.412;9.730;2023-07-20T00:49:54;10.43;;;4.53;;
48317;SDS011;34127;47.412;9.730;2023-07-20T00:52:21;6.45;;;4.00;;
48317;SDS011;34127;47.412;9.730;2023-07-20T00:54:49;9.38;;;4.85;;
48317;SDS011;34127;47.412;9.730;2023-07-20T00:57:16;6.65;;;4.20;;
48317;SDS011;34127;47.412;9.730;2023-07-20T00:59:43;6.45;;;3.72;;
48317;SDS011;34127;47.412;9.730;2023-07-20T01:02:09;7.43;;;3.88;;
48317;SDS011;34127;47.412;9.730;2023-07-20T01:04:35;9.20;;;3.92;;
48317;SDS011;34127;47.412;9.730;2023-07-20T01:15:05;8.93;;;4.22;;
48317;SDS011;34127;47.412;9.730;2023-07-20T01:17:33;7.18;;;3.97;;
48317;SDS011;34127;47.412;9.730;2023-07-20T01:19:59;7.95;;;3.90;;
48317;SDS011;34127;47.412;9.730;2023-07-20T01:23:00;7.90;;;4.18;;
48317;SDS011;34127;47.412;9.730;2023-07-20T01:30:46;6.13;;;3.78;;
48317;SDS011;34127;47.412;9.730;2023-07-20T01:33:17;9.25;;;3.97;;
48317;SDS011;34127;47.412;9.730;2023-07-20T01:35:44;6.47;;;3.88;;
48317;SDS011;34127;47.412;9.730;2023-07-20T01:38:12;7.40;;;3.78;;
48317;SDS011;34127;47.412;9.730;2023-07-20T01:40:39;8.27;;;4.25;;
48317;SDS011;34127;47.412;9.730;2023-07-20T01:43:06;7.50;;;4.20;;
48317;SDS011;34127;47.412;9.730;2023-07-20T01:45:32;6.03;;;3.33;;
48317;SDS011;34127;47.412;9.730;2023-07-20T01:47:58;7.57;;;4.10;;
48317;SDS011;34127;47.412;9.730;2023-07-20T01:50:24;7.60;;;3.70;;
48317;SDS011;34127;47.412;9.730;2023-07-20T01:52:51;6.43;;;3.58;;
48317;SDS011;34127;47.412;9.730;2023-07-20T01:55:17;8.45;;;3.58;;
48317;SDS011;34127;47.412;9.730;2023-07-20T01:57:43;9.05;;;4.00;;
48317;SDS011;34127;47.412;9.730;2023-07-20T02:00:09;6.93;;;3.80;;
48317;SDS011;34127;47.412;9.730;2023-07-20T02:02:36;7.93;;;4.03;;
48317;SDS011;34127;47.412;9.730;2023-07-20T02:05:02;9.95;;;3.90;;
48317;SDS011;34127;47.412;9.730;2023-07-20T02:07:29;7.93;;;4.20;;
48317;SDS011;34127;47.412;9.730;2023-07-20T02:09:55;7.93;;;3.65;;
48317;SDS011;34127;47.412;9.730;2023-07-20T02:12:21;6.18;;;3.85;;
48317;SDS011;34127;47.412;9.730;2023-07-20T02:14:48;6.68;;;3.75;;
48317;SDS011;34127;47.412;9.730;2023-07-20T02:17:15;8.38;;;4.40;;
48317;SDS011;34127;47.412;9.730;2023-07-20T02:19:41;7.05;;;3.78;;
48317;SDS011;34127;47.412;9.730;2023-07-20T02:22:07;6.38;;;3.83;;
48317;SDS011;34127;47.412;9.730;2023-07-20T02:24:34;6.57;;;3.90;;
48317;SDS011;34127;47.412;9.730;2023-07-20T02:27:00;7.30;;;4.00;;
48317;SDS011;34127;47.412;9.730;2023-07-20T02:29:26;7.18;;;3.05;;
48317;SDS011;34127;47.412;9.730;2023-07-20T02:31:53;9.20;;;3.60;;
48317;SDS011;34127;47.412;9.730;2023-07-20T02:34:19;6.88;;;3.40;;
48317;SDS011;34127;47.412;9.730;2023-07-20T02:36:45;7.68;;;3.42;;
48317;SDS011;34127;47.412;9.730;2023-07-20T02:39:11;7.05;;;3.47;;
48317;SDS011;34127;47.412;9.730;2023-07-20T02:41:37;6.68;;;3.25;;
48317;SDS011;34127;47.412;9.730;2023-07-20T02:44:03;6.10;;;3.25;;
48317;SDS011;34127;47.412;9.730;2023-07-20T02:46:29;6.40;;;2.83;;
48317;SDS011;34127;47.412;9.730;2023-07-20T02:48:56;5.30;;;2.70;;
48317;SDS011;34127;47.412;9.730;2023-07-20T02:51:22;6.68;;;2.80;;
48317;SDS011;34127;47.412;9.730;2023-07-20T02:53:48;5.63;;;2.53;;
48317;SDS011;34127;47.412;9.730;2023-07-20T02:56:14;4.85;;;2.80;;
48317;SDS011;34127;47.412;9.730;2023-07-20T02:58:41;6.63;;;2.83;;
48317;SDS011;34127;47.412;9.730;2023-07-20T03:01:11;5.65;;;2.92;;
48317;SDS011;34127;47.412;9.730;2023-07-20T03:03:37;6.20;;;2.90;;
48317;SDS011;34127;47.412;9.730;2023-07-20T03:06:03;5.30;;;2.92;;
48317;SDS011;34127;47.412;9.730;2023-07-20T03:08:30;5.28;;;2.67;;
48317;SDS011;34127;47.412;9.730;2023-07-20T03:10:56;5.88;;;2.63;;
48317;SDS011;34127;47.412;9.730;2023-07-20T03:13:22;6.18;;;2.40;;
48317;SDS011;34127;47.412;9.730;2023-07-20T03:15:49;5.85;;;2.67;;
48317;SDS011;34127;47.412;9.730;2023-07-20T03:18:15;5.28;;;2.17;;
48317;SDS011;34127;47.412;9.730;2023-07-20T03:20:41;4.15;;;2.45;;
48317;SDS011;34127;47.412;9.730;2023-07-20T03:23:07;6.68;;;2.80;;
48317;SDS011;34127;47.412;9.730;2023-07-20T03:25:33;4.97;;;3.17;;
48317;SDS011;34127;47.412;9.730;2023-07-20T03:28:02;5.57;;;2.75;;
48317;SDS011;34127;47.412;9.730;2023-07-20T03:30:28;8.23;;;3.08;;
48317;SDS011;34127;47.412;9.730;2023-07-20T03:32:54;6.45;;;3.00;;
48317;SDS011;34127;47.412;9.730;2023-07-20T03:35:20;4.93;;;2.67;;
48317;SDS011;34127;47.412;9.730;2023-07-20T03:37:47;5.25;;;2.78;;
48317;SDS011;34127;47.412;9.730;2023-07-20T03:40:13;7.22;;;2.70;;
48317;SDS011;34127;47.412;9.730;2023-07-20T03:42:40;7.28;;;3.13;;
48317;SDS011;34127;47.412;9.730;2023-07-20T03:45:07;6.05;;;2.63;;
48317;SDS011;34127;47.412;9.730;2023-07-20T03:47:33;6.10;;;3.00;;
48317;SDS011;34127;47.412;9.730;2023-07-20T03:50:00;4.25;;;2.58;;
48317;SDS011;34127;47.412;9.730;2023-07-20T03:52:26;8.27;;;3.05;;
48317;SDS011;34127;47.412;9.730;2023-07-20T03:54:52;11.85;;;3.00;;
48317;SDS011;34127;47.412;9.730;2023-07-20T03:57:18;7.22;;;2.70;;
48317;SDS011;34127;47.412;9.730;2023-07-20T03:59:44;6.20;;;2.80;;
48317;SDS011;34127;47.412;9.730;2023-07-20T04:02:14;6.13;;;2.80;;
48317;SDS011;34127;47.412;9.730;2023-07-20T04:04:40;5.90;;;2.60;;
48317;SDS011;34127;47.412;9.730;2023-07-20T04:07:06;6.05;;;2.72;;
48317;SDS011;34127;47.412;9.730;2023-07-20T04:09:33;5.38;;;2.80;;
48317;SDS011;34127;47.412;9.730;2023-07-20T04:11:59;7.70;;;2.80;;
48317;SDS011;34127;47.412;9.730;2023-07-20T04:14:25;4.57;;;2.67;;
48317;SDS011;34127;47.412;9.730;2023-07-20T04:16:51;5.03;;;3.00;;
48317;SDS011;34127;47.412;9.730;2023-07-20T04:19:17;6.28;;;3.10;;
48317;SDS011;34127;47.412;9.730;2023-07-20T04:21:44;7.13;;;2.67;;
48317;SDS011;34127;47.412;9.730;2023-07-20T04:24:10;8.75;;;2.80;;
48317;SDS011;34127;47.412;9.730;2023-07-20T04:26:36;7.47;;;3.10;;
48317;SDS011;34127;47.412;9.730;2023-07-20T04:29:03;5.82;;;3.00;;
48317;SDS011;34127;47.412;9.730;2023-07-20T04:31:29;6.97;;;3.15;;
48317;SDS011;34127;47.412;9.730;2023-07-20T04:33:58;5.80;;;3.40;;
48317;SDS011;34127;47.412;9.730;2023-07-20T04:36:24;6.57;;;2.80;;
48317;SDS011;34127;47.412;9.730;2023-07-20T04:38:50;5.05;;;2.80;;
48317;SDS011;34127;47.412;9.730;2023-07-20T04:41:16;5.45;;;2.95;;
48317;SDS011;34127;47.412;9.730;2023-07-20T04:43:43;5.85;;;2.92;;
48317;SDS011;34127;47.412;9.730;2023-07-20T04:46:10;5.18;;;3.13;;
48317;SDS011;34127;47.412;9.730;2023-07-20T04:48:36;6.45;;;3.08;;
48317;SDS011;34127;47.412;9.730;2023-07-20T04:51:03;6.63;;;2.88;;
48317;SDS011;34127;47.412;9.730;2023-07-20T04:53:29;6.32;;;3.35;;
48317;SDS011;34127;47.412;9.730;2023-07-20T04:55:56;5.70;;;3.17;;
48317;SDS011;34127;47.412;9.730;2023-07-20T04:58:22;7.10;;;3.05;;
48317;SDS011;34127;47.412;9.730;2023-07-20T05:00:49;7.70;;;2.97;;
48317;SDS011;34127;47.412;9.730;2023-07-20T05:03:15;6.75;;;3.42;;
48317;SDS011;34127;47.412;9.730;2023-07-20T05:05:41;5.55;;;3.33;;
48317;SDS011;34127;47.412;9.730;2023-07-20T05:08:07;5.85;;;2.90;;
48317;SDS011;34127;47.412;9.730;2023-07-20T05:10:34;6.05;;;3.00;;
48317;SDS011;34127;47.412;9.730;2023-07-20T05:13:00;9.55;;;4.40;;
48317;SDS011;34127;47.412;9.730;2023-07-20T05:15:27;6.30;;;3.35;;
48317;SDS011;34127;47.412;9.730;2023-07-20T05:17:53;6.95;;;3.10;;
48317;SDS011;34127;47.412;9.730;2023-07-20T05:20:19;6.15;;;3.13;;
48317;SDS011;34127;47.412;9.730;2023-07-20T05:22:46;10.10;;;3.35;;
48317;SDS011;34127;47.412;9.730;2023-07-20T05:25:12;6.25;;;3.38;;
48317;SDS011;34127;47.412;9.730;2023-07-20T05:27:38;4.97;;;3.17;;
48317;SDS011;34127;47.412;9.730;2023-07-20T05:30:05;6.68;;;3.78;;
48317;SDS011;34127;47.412;9.730;2023-07-20T05:32:32;7.70;;;3.33;;
48317;SDS011;34127;47.412;9.730;2023-07-20T05:34:58;5.60;;;3.17;;
48317;SDS011;34127;47.412;9.730;2023-07-20T05:37:24;6.75;;;3.47;;
48317;SDS011;34127;47.412;9.730;2023-07-20T05:39:51;7.32;;;3.35;;
48317;SDS011;34127;47.412;9.730;2023-07-20T05:42:17;5.47;;;3.38;;
48317;SDS011;34127;47.412;9.730;2023-07-20T05:44:43;6.55;;;3.30;;
48317;SDS011;34127;47.412;9.730;2023-07-20T05:47:09;6.53;;;3.35;;
48317;SDS011;34127;47.412;9.730;2023-07-20T05:49:35;8.55;;;3.50;;
48317;SDS011;34127;47.412;9.730;2023-07-20T05:52:01;6.00;;;3.20;;
48317;SDS011;34127;47.412;9.730;2023-07-20T05:54:27;6.10;;;3.20;;
48317;SDS011;34127;47.412;9.730;2023-07-20T05:56:54;6.28;;;3.45;;
48317;SDS011;34127;47.412;9.730;2023-07-20T05:59:20;7.15;;;3.33;;
48317;SDS011;34127;47.412;9.730;2023-07-20T06:01:48;5.95;;;3.10;;
48317;SDS011;34127;47.412;9.730;2023-07-20T06:04:14;8.02;;;3.00;;
48317;SDS011;34127;47.412;9.730;2023-07-20T06:06:41;7.50;;;3.10;;
48317;SDS011;34127;47.412;9.730;2023-07-20T06:09:07;6.50;;;3.00;;
48317;SDS011;34127;47.412;9.730;2023-07-20T06:11:37;6.97;;;3.13;;
48317;SDS011;34127;47.412;9.730;2023-07-20T06:14:03;5.97;;;2.95;;
48317;SDS011;34127;47.412;9.730;2023-07-20T06:16:29;7.70;;;3.10;;
48317;SDS011;34127;47.412;9.730;2023-07-20T06:18:55;6.88;;;2.83;;
48317;SDS011;34127;47.412;9.730;2023-07-20T06:21:22;6.82;;;3.08;;
48317;SDS011;34127;47.412;9.730;2023-07-20T06:23:48;4.88;;;2.55;;
48317;SDS011;34127;47.412;9.730;2023-07-20T06:26:14;4.85;;;2.75;;
48317;SDS011;34127;47.412;9.730;2023-07-20T06:28:40;4.35;;;2.53;;
48317;SDS011;34127;47.412;9.730;2023-07-20T06:31:06;6.80;;;2.92;;
48317;SDS011;34127;47.412;9.730;2023-07-20T06:33:33;4.75;;;2.42;;
48317;SDS011;34127;47.412;9.730;2023-07-20T06:36:00;7.10;;;2.30;;
48317;SDS011;34127;47.412;9.730;2023-07-20T06:38:27;6.88;;;2.55;;
48317;SDS011;34127;47.412;9.730;2023-07-20T06:40:54;8.80;;;2.88;;
48317;SDS011;34127;47.412;9.730;2023-07-20T06:43:20;6.88;;;2.60;;
48317;SDS011;34127;47.412;9.730;2023-07-20T06:45:53;6.13;;;2.63;;
48317;SDS011;34127;47.412;9.730;2023-07-20T06:48:21;6.68;;;2.67;;
48317;SDS011;34127;47.412;9.730;2023-07-20T06:50:47;9.18;;;3.95;;
48317;SDS011;34127;47.412;9.730;2023-07-20T06:53:13;9.63;;;2.63;;
48317;SDS011;34127;47.412;9.730;2023-07-20T06:55:41;6.45;;;2.10;;
48317;SDS011;34127;47.412;9.730;2023-07-20T06:58:07;7.18;;;2.50;;
48317;SDS011;34127;47.412;9.730;2023-07-20T07:00:34;3.13;;;2.10;;
48317;SDS011;34127;47.412;9.730;2023-07-20T07:03:00;5.43;;;2.25;;
48317;SDS011;34127;47.412;9.730;2023-07-20T07:05:26;7.32;;;2.55;;
48317;SDS011;34127;47.412;9.730;2023-07-20T07:07:52;4.35;;;2.10;;
48317;SDS011;34127;47.412;9.730;2023-07-20T07:10:18;5.82;;;2.50;;
48317;SDS011;34127;47.412;9.730;2023-07-20T07:12:44;5.43;;;2.38;;
48317;SDS011;34127;47.412;9.730;2023-07-20T07:15:17;6.18;;;2.50;;
48317;SDS011;34127;47.412;9.730;2023-07-20T07:17:43;3.80;;;2.13;;
48317;SDS011;34127;47.412;9.730;2023-07-20T07:20:10;3.45;;;2.10;;
48317;SDS011;34127;47.412;9.730;2023-07-20T07:22:36;5.07;;;2.40;;
48317;SDS011;34127;47.412;9.730;2023-07-20T07:25:02;4.60;;;2.20;;
48317;SDS011;34127;47.412;9.730;2023-07-20T07:27:28;9.43;;;2.50;;
48317;SDS011;34127;47.412;9.730;2023-07-20T07:29:54;5.13;;;3.25;;
48317;SDS011;34127;47.412;9.730;2023-07-20T07:32:21;5.32;;;2.53;;
48317;SDS011;34127;47.412;9.730;2023-07-20T07:34:47;4.05;;;1.90;;
48317;SDS011;34127;47.412;9.730;2023-07-20T07:37:13;4.88;;;2.20;;
48317;SDS011;34127;47.412;9.730;2023-07-20T07:39:40;6.20;;;2.40;;
48317;SDS011;34127;47.412;9.730;2023-07-20T07:42:06;3.38;;;1.90;;
48317;SDS011;34127;47.412;9.730;2023-07-20T07:44:32;6.55;;;2.22;;
48317;SDS011;34127;47.412;9.730;2023-07-20T07:46:58;4.13;;;2.10;;
48317;SDS011;34127;47.412;9.730;2023-07-20T07:49:24;6.28;;;2.55;;
48317;SDS011;34127;47.412;9.730;2023-07-20T07:51:51;4.15;;;2.50;;
48317;SDS011;34127;47.412;9.730;2023-07-20T07:54:17;4.63;;;2.40;;
48317;SDS011;34127;47.412;9.730;2023-07-20T07:56:43;5.53;;;2.60;;
48317;SDS011;34127;47.412;9.730;2023-07-20T07:59:09;4.35;;;2.10;;
48317;SDS011;34127;47.412;9.730;2023-07-20T08:01:36;5.30;;;2.30;;
48317;SDS011;34127;47.412;9.730;2023-07-20T08:04:02;5.70;;;2.60;;
48317;SDS011;34127;47.412;9.730;2023-07-20T08:06:28;4.25;;;2.30;;
48317;SDS011;34127;47.412;9.730;2023-07-20T08:08:55;6.75;;;2.50;;
48317;SDS011;34127;47.412;9.730;2023-07-20T08:11:21;5.50;;;2.53;;
48317;SDS011;34127;47.412;9.730;2023-07-20T08:13:47;7.28;;;2.55;;
48317;SDS011;34127;47.412;9.730;2023-07-20T08:16:13;6.28;;;2.45;;
48317;SDS011;34127;47.412;9.730;2023-07-20T08:18:39;7.13;;;2.58;;
48317;SDS011;34127;47.412;9.730;2023-07-20T08:21:05;5.45;;;2.20;;
48317;SDS011;34127;47.412;9.730;2023-07-20T08:23:32;8.35;;;2.78;;
48317;SDS011;34127;47.412;9.730;2023-07-20T08:25:58;5.13;;;2.60;;
48317;SDS011;34127;47.412;9.730;2023-07-20T08:28:25;6.35;;;2.63;;
48317;SDS011;34127;47.412;9.730;2023-07-20T08:30:51;8.63;;;2.83;;
48317;SDS011;34127;47.412;9.730;2023-07-20T08:33:18;3.97;;;2.22;;
48317;SDS011;34127;47.412;9.730;2023-07-20T08:35:45;9.15;;;2.67;;
48317;SDS011;34127;47.412;9.730;2023-07-20T08:38:11;6.15;;;2.40;;
48317;SDS011;34127;47.412;9.730;2023-07-20T08:40:47;5.72;;;2.50;;
48317;SDS011;34127;47.412;9.730;2023-07-20T08:43:13;4.97;;;2.40;;
48317;SDS011;34127;47.412;9.730;2023-07-20T08:45:44;5.82;;;2.75;;
48317;SDS011;34127;47.412;9.730;2023-07-20T08:48:11;4.50;;;2.70;;
48317;SDS011;34127;47.412;9.730;2023-07-20T08:50:37;4.55;;;2.47;;
48317;SDS011;34127;47.412;9.730;2023-07-20T08:53:04;5.80;;;2.60;;
48317;SDS011;34127;47.412;9.730;2023-07-20T08:55:31;6.97;;;2.55;;
48317;SDS011;34127;47.412;9.730;2023-07-20T08:57:58;5.03;;;2.38;;
48317;SDS011;34127;47.412;9.730;2023-07-20T09:00:25;3.95;;;2.30;;
48317;SDS011;34127;47.412;9.730;2023-07-20T09:02:55;7.97;;;2.72;;
48317;SDS011;34127;47.412;9.730;2023-07-20T09:05:22;4.20;;;2.33;;
48317;SDS011;34127;47.412;9.730;2023-07-20T09:07:50;6.80;;;2.80;;
48317;SDS011;34127;47.412;9.730;2023-07-20T09:10:16;4.70;;;2.55;;
48317;SDS011;34127;47.412;9.730;2023-07-20T09:12:43;4.35;;;2.40;;
48317;SDS011;34127;47.412;9.730;2023-07-20T09:15:10;4.38;;;2.53;;
48317;SDS011;34127;47.412;9.730;2023-07-20T09:17:36;6.75;;;2.58;;
48317;SDS011;34127;47.412;9.730;2023-07-20T09:20:06;5.85;;;2.38;;
48317;SDS011;34127;47.412;9.730;2023-07-20T09:22:39;7.30;;;2.60;;
48317;SDS011;34127;47.412;9.730;2023-07-20T09:30:06;5.90;;;2.63;;
48317;SDS011;34127;47.412;9.730;2023-07-20T09:32:44;5.95;;;2.60;;
48317;SDS011;34127;47.412;9.730;2023-07-20T09:35:20;6.75;;;2.42;;
48317;SDS011;34127;47.412;9.730;2023-07-20T09:37:47;6.93;;;3.00;;
48317;SDS011;34127;47.412;9.730;2023-07-20T09:40:16;6.70;;;2.80;;
48317;SDS011;34127;47.412;9.730;2023-07-20T09:42:42;4.18;;;2.50;;
48317;SDS011;34127;47.412;9.730;2023-07-20T09:45:09;5.25;;;2.70;;
48317;SDS011;34127;47.412;9.730;2023-07-20T09:47:36;5.43;;;2.55;;
48317;SDS011;34127;47.412;9.730;2023-07-20T09:50:03;5.93;;;2.40;;
48317;SDS011;34127;47.412;9.730;2023-07-20T09:52:30;5.43;;;2.92;;
48317;SDS011;34127;47.412;9.730;2023-07-20T09:54:57;5.07;;;2.90;;
48317;SDS011;34127;47.412;9.730;2023-07-20T09:57:23;6.00;;;2.58;;
48317;SDS011;34127;47.412;9.730;2023-07-20T09:59:49;4.70;;;2.75;;
48317;SDS011;34127;47.412;9.730;2023-07-20T10:02:20;4.93;;;2.40;;
48317;SDS011;34127;47.412;9.730;2023-07-20T10:04:47;7.00;;;2.75;;
48317;SDS011;34127;47.412;9.730;2023-07-20T10:07:14;7.63;;;2.83;;
48317;SDS011;34127;47.412;9.730;2023-07-20T10:09:42;3.83;;;2.40;;
48317;SDS011;34127;47.412;9.730;2023-07-20T10:12:10;6.32;;;2.30;;
48317;SDS011;34127;47.412;9.730;2023-07-20T10:14:38;5.43;;;2.63;;
48317;SDS011;34127;47.412;9.730;2023-07-20T10:17:07;4.13;;;2.30;;
48317;SDS011;34127;47.412;9.730;2023-07-20T10:19:42;4.95;;;2.60;;
48317;SDS011;34127;47.412;9.730;2023-07-20T10:22:12;6.47;;;2.35;;
48317;SDS011;34127;47.412;9.730;2023-07-20T10:24:44;5.78;;;2.42;;
48317;SDS011;34127;47.412;9.730;2023-07-20T10:27:10;4.38;;;2.33;;
48317;SDS011;34127;47.412;9.730;2023-07-20T10:29:37;4.28;;;2.20;;
48317;SDS011;34127;47.412;9.730;2023-07-20T10:32:03;4.63;;;2.50;;
48317;SDS011;34127;47.412;9.730;2023-07-20T10:34:30;5.70;;;2.38;;
48317;SDS011;34127;47.412;9.730;2023-07-20T10:36:57;4.75;;;2.50;;
48317;SDS011;34127;47.412;9.730;2023-07-20T10:39:24;4.47;;;2.50;;
48317;SDS011;34127;47.412;9.730;2023-07-20T10:41:59;5.55;;;2.35;;
48317;SDS011;34127;47.412;9.730;2023-07-20T10:44:26;4.78;;;2.40;;
48317;SDS011;34127;47.412;9.730;2023-07-20T10:46:58;4.07;;;2.30;;
48317;SDS011;34127;47.412;9.730;2023-07-20T10:49:25;3.17;;;2.10;;
48317;SDS011;34127;47.412;9.730;2023-07-20T10:51:56;6.65;;;2.20;;
48317;SDS011;34127;47.412;9.730;2023-07-20T10:56:51;4.22;;;2.38;;
48317;SDS011;34127;47.412;9.730;2023-07-20T10:59:18;3.72;;;2.15;;
48317;SDS011;34127;47.412;9.730;2023-07-20T11:01:45;4.20;;;2.05;;
48317;SDS011;34127;47.412;9.730;2023-07-20T11:04:12;5.45;;;2.17;;
48317;SDS011;34127;47.412;9.730;2023-07-20T11:06:43;3.78;;;2.20;;
48317;SDS011;34127;47.412;9.730;2023-07-20T11:09:10;3.95;;;2.40;;
48317;SDS011;34127;47.412;9.730;2023-07-20T11:11:39;3.13;;;2.10;;
48317;SDS011;34127;47.412;9.730;2023-07-20T11:14:06;10.88;;;2.45;;
48317;SDS011;34127;47.412;9.730;2023-07-20T11:16:33;3.90;;;2.22;;
48317;SDS011;34127;47.412;9.730;2023-07-20T11:19:00;5.53;;;2.42;;
48317;SDS011;34127;47.412;9.730;2023-07-20T11:21:26;5.28;;;2.65;;
48317;SDS011;34127;47.412;9.730;2023-07-20T11:23:52;4.95;;;2.42;;
48317;SDS011;34127;47.412;9.730;2023-07-20T11:26:19;6.43;;;2.50;;
48317;SDS011;34127;47.412;9.730;2023-07-20T11:28:51;5.22;;;2.25;;
48317;SDS011;34127;47.412;9.730;2023-07-20T11:31:18;3.83;;;2.00;;
48317;SDS011;34127;47.412;9.730;2023-07-20T11:33:45;6.07;;;2.20;;
48317;SDS011;34127;47.412;9.730;2023-07-20T11:36:11;4.28;;;2.15;;
48317;SDS011;34127;47.412;9.730;2023-07-20T11:38:38;6.25;;;1.85;;
48317;SDS011;34127;47.412;9.730;2023-07-20T11:41:05;5.57;;;2.20;;
48317;SDS011;34127;47.412;9.730;2023-07-20T11:43:31;3.70;;;2.20;;
48317;SDS011;34127;47.412;9.730;2023-07-20T11:45:57;5.10;;;2.33;;
48317;SDS011;34127;47.412;9.730;2023-07-20T11:48:23;4.72;;;2.67;;
48317;SDS011;34127;47.412;9.730;2023-07-20T11:50:49;3.65;;;1.92;;
48317;SDS011;34127;47.412;9.730;2023-07-20T11:53:16;4.97;;;2.33;;
48317;SDS011;34127;47.412;9.730;2023-07-20T11:55:42;5.00;;;2.20;;
48317;SDS011;34127;47.412;9.730;2023-07-20T11:58:09;4.75;;;2.30;;
48317;SDS011;34127;47.412;9.730;2023-07-20T12:00:36;5.60;;;2.88;;
48317;SDS011;34127;47.412;9.730;2023-07-20T12:03:04;5.20;;;2.55;;
48317;SDS011;34127;47.412;9.730;2023-07-20T12:05:31;5.88;;;2.83;;
48317;SDS011;34127;47.412;9.730;2023-07-20T12:07:58;9.15;;;2.55;;
48317;SDS011;34127;47.412;9.730;2023-07-20T12:10:25;3.85;;;2.20;;
48317;SDS011;34127;47.412;9.730;2023-07-20T12:12:51;7.38;;;2.70;;
48317;SDS011;34127;47.412;9.730;2023-07-20T12:15:24;5.78;;;2.72;;
48317;SDS011;34127;47.412;9.730;2023-07-20T12:17:55;4.80;;;2.40;;
48317;SDS011;34127;47.412;9.730;2023-07-20T12:20:32;6.00;;;2.42;;
48317;SDS011;34127;47.412;9.730;2023-07-20T12:23:00;4.93;;;2.53;;
48317;SDS011;34127;47.412;9.730;2023-07-20T12:25:42;6.65;;;2.53;;
48317;SDS011;34127;47.412;9.730;2023-07-20T12:28:09;3.60;;;2.20;;
48317;SDS011;34127;47.412;9.730;2023-07-20T12:30:36;5.75;;;2.33;;
48317;SDS011;34127;47.412;9.730;2023-07-20T12:33:04;4.03;;;2.60;;
48317;SDS011;34127;47.412;9.730;2023-07-20T12:35:33;4.40;;;2.40;;
48317;SDS011;34127;47.412;9.730;2023-07-20T12:37:59;5.63;;;2.90;;
48317;SDS011;34127;47.412;9.730;2023-07-20T12:40:26;4.32;;;2.60;;
48317;SDS011;34127;47.412;9.730;2023-07-20T12:42:52;4.35;;;2.70;;
48317;SDS011;34127;47.412;9.730;2023-07-20T12:45:19;9.18;;;3.42;;
48317;SDS011;34127;47.412;9.730;2023-07-20T12:47:45;8.65;;;3.03;;
48317;SDS011;34127;47.412;9.730;2023-07-20T12:50:11;8.95;;;3.40;;
48317;SDS011;34127;47.412;9.730;2023-07-20T12:52:38;7.20;;;3.00;;
48317;SDS011;34127;47.412;9.730;2023-07-20T12:55:08;5.90;;;3.25;;
48317;SDS011;34127;47.412;9.730;2023-07-20T12:57:35;9.50;;;3.38;;
48317;SDS011;34127;47.412;9.730;2023-07-20T13:00:06;6.63;;;2.88;;
48317;SDS011;34127;47.412;9.730;2023-07-20T13:02:35;5.35;;;2.60;;
48317;SDS011;34127;47.412;9.730;2023-07-20T13:05:02;5.63;;;2.80;;
48317;SDS011;34127;47.412;9.730;2023-07-20T13:07:32;4.65;;;2.47;;
48317;SDS011;34127;47.412;9.730;2023-07-20T13:09:59;4.90;;;2.80;;
48317;SDS011;34127;47.412;9.730;2023-07-20T13:12:26;5.50;;;2.60;;
48317;SDS011;34127;47.412;9.730;2023-07-20T13:14:52;4.50;;;2.60;;
48317;SDS011;34127;47.412;9.730;2023-07-20T13:17:19;5.68;;;2.90;;
48317;SDS011;34127;47.412;9.730;2023-07-20T13:19:45;6.70;;;3.05;;
48317;SDS011;34127;47.412;9.730;2023-07-20T13:22:11;6.90;;;2.80;;
48317;SDS011;34127;47.412;9.730;2023-07-20T13:24:39;5.78;;;2.78;;
48317;SDS011;34127;47.412;9.730;2023-07-20T13:27:05;6.32;;;3.30;;
48317;SDS011;34127;47.412;9.730;2023-07-20T13:29:32;6.50;;;2.80;;
48317;SDS011;34127;47.412;9.730;2023-07-20T13:31:58;4.45;;;2.85;;
48317;SDS011;34127;47.412;9.730;2023-07-20T13:34:27;5.93;;;2.45;;
48317;SDS011;34127;47.412;9.730;2023-07-20T13:36:53;4.75;;;2.65;;
48317;SDS011;34127;47.412;9.730;2023-07-20T13:39:20;5.28;;;2.90;;
48317;SDS011;34127;47.412;9.730;2023-07-20T13:41:49;5.25;;;2.80;;
48317;SDS011;34127;47.412;9.730;2023-07-20T13:44:16;4.38;;;2.67;;
48317;SDS011;34127;47.412;9.730;2023-07-20T13:46:42;5.45;;;2.72;;
48317;SDS011;34127;47.412;9.730;2023-07-20T13:49:08;4.75;;;2.33;;
48317;SDS011;34127;47.412;9.730;2023-07-20T13:51:34;6.18;;;3.10;;
48317;SDS011;34127;47.412;9.730;2023-07-20T13:54:00;6.53;;;2.78;;
48317;SDS011;34127;47.412;9.730;2023-07-20T13:56:26;5.10;;;2.63;;
48317;SDS011;34127;47.412;9.730;2023-07-20T13:58:52;6.70;;;2.67;;
48317;SDS011;34127;47.412;9.730;2023-07-20T14:01:19;5.07;;;3.10;;
48317;SDS011;34127;47.412;9.730;2023-07-20T14:03:45;5.40;;;2.78;;
48317;SDS011;34127;47.412;9.730;2023-07-20T14:06:11;5.00;;;2.80;;
48317;SDS011;34127;47.412;9.730;2023-07-20T14:08:38;4.63;;;2.60;;
48317;SDS011;34127;47.412;9.730;2023-07-20T14:11:06;4.88;;;2.80;;
48317;SDS011;34127;47.412;9.730;2023-07-20T14:13:32;6.00;;;3.15;;
48317;SDS011;34127;47.412;9.730;2023-07-20T14:15:58;7.15;;;3.30;;
48317;SDS011;34127;47.412;9.730;2023-07-20T14:18:24;6.47;;;3.13;;
48317;SDS011;34127;47.412;9.730;2023-07-20T14:20:50;4.20;;;2.78;;
48317;SDS011;34127;47.412;9.730;2023-07-20T14:23:16;4.85;;;2.92;;
48317;SDS011;34127;47.412;9.730;2023-07-20T14:25:42;7.30;;;3.25;;
48317;SDS011;34127;47.412;9.730;2023-07-20T14:28:09;4.05;;;2.80;;
48317;SDS011;34127;47.412;9.730;2023-07-20T14:30:35;5.57;;;2.90;;
48317;SDS011;34127;47.412;9.730;2023-07-20T14:33:01;6.82;;;2.90;;
48317;SDS011;34127;47.412;9.730;2023-07-20T14:35:27;4.63;;;2.60;;
48317;SDS011;34127;47.412;9.730;2023-07-20T14:37:53;5.85;;;3.00;;
48317;SDS011;34127;47.412;9.730;2023-07-20T14:40:20;5.95;;;2.92;;
48317;SDS011;34127;47.412;9.730;2023-07-20T14:42:46;5.32;;;2.85;;
48317;SDS011;34127;47.412;9.730;2023-07-20T14:45:12;6.03;;;2.80;;
48317;SDS011;34127;47.412;9.730;2023-07-20T14:47:39;5.22;;;2.60;;
48317;SDS011;34127;47.412;9.730;2023-07-20T14:50:05;5.57;;;2.65;;
48317;SDS011;34127;47.412;9.730;2023-07-20T14:52:31;5.72;;;2.80;;
48317;SDS011;34127;47.412;9.730;2023-07-20T14:54:58;4.18;;;2.63;;
48317;SDS011;34127;47.412;9.730;2023-07-20T14:57:24;4.85;;;2.90;;
48317;SDS011;34127;47.412;9.730;2023-07-20T14:59:50;8.77;;;2.83;;
48317;SDS011;34127;47.412;9.730;2023-07-20T15:02:17;4.78;;;2.50;;
48317;SDS011;34127;47.412;9.730;2023-07-20T15:04:49;6.85;;;2.75;;
48317;SDS011;34127;47.412;9.730;2023-07-20T15:07:16;7.25;;;2.75;;